sensor_id;sensor_type;location;lat;lon;timestamp;P1;durP1;ratioP1;P2;durP2;ratioP2
66970;SDS011;53901;51.466;-2.588;2023-07-09T00:02:04;17.52;;;2.70;;
66970;SDS011;53901;51.466;-2.588;2023-07-09T00:04:30;9.63;;;1.80;;
66970;SDS011;53901;51.466;-2.588;2023-07-09T00:06:55;18.27;;;2.60;;
66970;SDS011;53901;51.466;-2.588;2023-07-09T00:09:23;9.38;;;2.10;;
66970;SDS011;53901;51.466;-2.588;2023-07-09T00:11:49;11.85;;;2.35;;
66970;SDS011;53901;51.466;-2.588;2023-07-09T00:14:15;12.23;;;2.63;;
66970;SDS011;53901;51.466;-2.588;2023-07-09T00:16:42;16.85;;;2.50;;
66970;SDS011;53901;51.466;-2.588;2023-07-09T00:19:11;10.55;;;2.78;;
66970;SDS011;53901;51.466;-2.588;2023-07-09T00:21:42;14.88;;;3.83;;
66970;SDS011;53901;51.466;-2.588;2023-07-09T00:24:10;13.60;;;2.35;;
66970;SDS011;53901;51.466;-2.588;2023-07-09T00:26:36;15.48;;;3.30;;
66970;SDS011;53901;51.466;-2.588;2023-07-09T00:29:03;13.18;;;3.10;;
66970;SDS011;53901;51.466;-2.588;2023-07-09T00:31:29;14.52;;;3.03;;
66970;SDS011;53901;51.466;-2.588;2023-07-09T00:33:54;13.30;;;2.67;;
66970;SDS011;53901;51.466;-2.588;2023-07-09T00:36:27;13.25;;;2.35;;
66970;SDS011;53901;51.466;-2.588;2023-07-09T00:38:56;14.60;;;2.70;;
66970;SDS011;53901;51.466;-2.588;2023-07-09T00:41:25;13.30;;;3.45;;
66970;SDS011;53901;51.466;-2.588;2023-07-09T00:43:51;10.73;;;3.08;;
66970;SDS011;53901;51.466;-2.588;2023-07-09T00:48:49;12.25;;;2.88;;
66970;SDS011;53901;51.466;-2.588;2023-07-09T00:51:16;14.15;;;3.10;;
66970;SDS011;53901;51.466;-2.588;2023-07-09T00:53:46;11.75;;;2.60;;
66970;SDS011;53901;51.466;-2.588;2023-07-09T00:56:13;9.68;;;2.35;;
66970;SDS011;53901;51.466;-2.588;2023-07-09T00:58:41;11.52;;;2.53;;
66970;SDS011;53901;51.466;-2.588;2023-07-09T01:01:11;10.27;;;2.42;;
66970;SDS011;53901;51.466;-2.588;2023-07-09T01:03:42;12.80;;;2.50;;
66970;SDS011;53901;51.466;-2.588;2023-07-09T01:06:10;16.30;;;3.42;;
66970;SDS011;53901;51.466;-2.588;2023-07-09T01:08:37;10.70;;;3.70;;
66970;SDS011;53901;51.466;-2.588;2023-07-09T01:11:14;15.23;;;4.50;;
66970;SDS011;53901;51.466;-2.588;2023-07-09T01:13:46;15.95;;;6.05;;
66970;SDS011;53901;51.466;-2.588;2023-07-09T01:16:13;13.35;;;4.90;;
66970;SDS011;53901;51.466;-2.588;2023-07-09T01:18:40;30.83;;;11.50;;
66970;SDS011;53901;51.466;-2.588;2023-07-09T01:21:08;44.85;;;16.80;;
66970;SDS011;53901;51.466;-2.588;2023-07-09T01:23:40;31.92;;;12.18;;
66970;SDS011;53901;51.466;-2.588;2023-07-09T01:26:08;23.52;;;8.82;;
66970;SDS011;53901;51.466;-2.588;2023-07-09T01:28:36;26.02;;;6.72;;
66970;SDS011;53901;51.466;-2.588;2023-07-09T01:31:02;29.50;;;10.02;;
66970;SDS011;53901;51.466;-2.588;2023-07-09T01:33:29;15.70;;;3.75;;
66970;SDS011;53901;51.466;-2.588;2023-07-09T01:35:55;19.58;;;6.75;;
66970;SDS011;53901;51.466;-2.588;2023-07-09T01:38:25;20.55;;;6.20;;
66970;SDS011;53901;51.466;-2.588;2023-07-09T01:40:55;17.67;;;5.30;;
66970;SDS011;53901;51.466;-2.588;2023-07-09T01:43:21;16.65;;;4.45;;
66970;SDS011;53901;51.466;-2.588;2023-07-09T01:45:47;17.20;;;3.83;;
66970;SDS011;53901;51.466;-2.588;2023-07-09T01:48:15;10.48;;;3.13;;
66970;SDS011;53901;51.466;-2.588;2023-07-09T01:50:41;11.27;;;2.70;;
66970;SDS011;53901;51.466;-2.588;2023-07-09T01:53:08;10.95;;;2.50;;
66970;SDS011;53901;51.466;-2.588;2023-07-09T01:55:36;12.35;;;2.70;;
66970;SDS011;53901;51.466;-2.588;2023-07-09T01:58:01;16.13;;;3.03;;
66970;SDS011;53901;51.466;-2.588;2023-07-09T02:00:31;10.00;;;2.75;;
66970;SDS011;53901;51.466;-2.588;2023-07-09T02:03:00;16.75;;;3.80;;
66970;SDS011;53901;51.466;-2.588;2023-07-09T02:05:27;16.17;;;3.38;;
66970;SDS011;53901;51.466;-2.588;2023-07-09T02:07:55;14.85;;;3.65;;
66970;SDS011;53901;51.466;-2.588;2023-07-09T02:10:20;13.98;;;3.42;;
66970;SDS011;53901;51.466;-2.588;2023-07-09T02:12:46;11.80;;;3.65;;
66970;SDS011;53901;51.466;-2.588;2023-07-09T02:15:11;20.95;;;3.40;;
66970;SDS011;53901;51.466;-2.588;2023-07-09T02:17:37;13.13;;;3.10;;
66970;SDS011;53901;51.466;-2.588;2023-07-09T02:20:03;16.60;;;3.17;;
66970;SDS011;53901;51.466;-2.588;2023-07-09T02:22:31;12.63;;;3.20;;
66970;SDS011;53901;51.466;-2.588;2023-07-09T02:24:57;12.30;;;2.88;;
66970;SDS011;53901;51.466;-2.588;2023-07-09T02:27:22;12.57;;;2.95;;
66970;SDS011;53901;51.466;-2.588;2023-07-09T02:29:48;11.13;;;2.78;;
66970;SDS011;53901;51.466;-2.588;2023-07-09T02:32:16;11.85;;;2.40;;
66970;SDS011;53901;51.466;-2.588;2023-07-09T02:34:47;10.50;;;2.42;;
66970;SDS011;53901;51.466;-2.588;2023-07-09T02:37:14;14.85;;;2.55;;
66970;SDS011;53901;51.466;-2.588;2023-07-09T02:39:41;12.35;;;2.70;;
66970;SDS011;53901;51.466;-2.588;2023-07-09T02:42:08;14.05;;;2.75;;
66970;SDS011;53901;51.466;-2.588;2023-07-09T02:44:36;9.45;;;3.00;;
66970;SDS011;53901;51.466;-2.588;2023-07-09T02:47:01;12.10;;;2.63;;
66970;SDS011;53901;51.466;-2.588;2023-07-09T02:49:26;14.82;;;2.78;;
66970;SDS011;53901;51.466;-2.588;2023-07-09T02:51:52;11.80;;;2.92;;
66970;SDS011;53901;51.466;-2.588;2023-07-09T02:54:17;11.85;;;3.08;;
66970;SDS011;53901;51.466;-2.588;2023-07-09T02:56:43;10.85;;;3.53;;
66970;SDS011;53901;51.466;-2.588;2023-07-09T02:59:08;17.33;;;3.65;;
66970;SDS011;53901;51.466;-2.588;2023-07-09T03:01:34;12.20;;;3.00;;
66970;SDS011;53901;51.466;-2.588;2023-07-09T03:04:01;11.93;;;3.05;;
66970;SDS011;53901;51.466;-2.588;2023-07-09T03:06:27;15.85;;;3.20;;
66970;SDS011;53901;51.466;-2.588;2023-07-09T03:08:52;13.45;;;3.08;;
66970;SDS011;53901;51.466;-2.588;2023-07-09T03:11:18;11.30;;;3.05;;
66970;SDS011;53901;51.466;-2.588;2023-07-09T03:13:45;12.00;;;2.80;;
66970;SDS011;53901;51.466;-2.588;2023-07-09T03:16:11;12.43;;;2.92;;
66970;SDS011;53901;51.466;-2.588;2023-07-09T03:18:36;8.45;;;3.05;;
66970;SDS011;53901;51.466;-2.588;2023-07-09T03:21:02;12.70;;;3.15;;
66970;SDS011;53901;51.466;-2.588;2023-07-09T03:23:28;16.35;;;3.53;;
66970;SDS011;53901;51.466;-2.588;2023-07-09T03:25:54;13.65;;;2.78;;
66970;SDS011;53901;51.466;-2.588;2023-07-09T03:28:20;14.95;;;2.90;;
66970;SDS011;53901;51.466;-2.588;2023-07-09T03:30:46;13.10;;;2.58;;
66970;SDS011;53901;51.466;-2.588;2023-07-09T03:33:13;9.07;;;2.25;;
66970;SDS011;53901;51.466;-2.588;2023-07-09T03:35:40;15.32;;;2.85;;
66970;SDS011;53901;51.466;-2.588;2023-07-09T03:38:06;18.17;;;6.50;;
66970;SDS011;53901;51.466;-2.588;2023-07-09T03:40:32;9.55;;;3.10;;
66970;SDS011;53901;51.466;-2.588;2023-07-09T03:42:57;12.85;;;3.35;;
66970;SDS011;53901;51.466;-2.588;2023-07-09T03:45:23;14.55;;;2.88;;
66970;SDS011;53901;51.466;-2.588;2023-07-09T03:47:49;10.70;;;2.60;;
66970;SDS011;53901;51.466;-2.588;2023-07-09T03:50:14;11.88;;;2.70;;
66970;SDS011;53901;51.466;-2.588;2023-07-09T03:52:40;11.95;;;2.75;;
66970;SDS011;53901;51.466;-2.588;2023-07-09T03:55:05;10.98;;;2.33;;
66970;SDS011;53901;51.466;-2.588;2023-07-09T03:57:31;15.73;;;3.10;;
66970;SDS011;53901;51.466;-2.588;2023-07-09T03:59:56;15.90;;;2.78;;
66970;SDS011;53901;51.466;-2.588;2023-07-09T04:02:22;11.95;;;2.55;;
66970;SDS011;53901;51.466;-2.588;2023-07-09T04:04:47;11.80;;;2.72;;
66970;SDS011;53901;51.466;-2.588;2023-07-09T04:07:13;17.27;;;3.10;;
66970;SDS011;53901;51.466;-2.588;2023-07-09T04:09:38;13.27;;;2.70;;
66970;SDS011;53901;51.466;-2.588;2023-07-09T04:12:04;12.52;;;2.40;;
66970;SDS011;53901;51.466;-2.588;2023-07-09T04:14:29;15.07;;;2.63;;
66970;SDS011;53901;51.466;-2.588;2023-07-09T04:16:55;18.58;;;3.28;;
66970;SDS011;53901;51.466;-2.588;2023-07-09T04:19:20;12.77;;;2.63;;
66970;SDS011;53901;51.466;-2.588;2023-07-09T04:21:45;12.55;;;2.55;;
66970;SDS011;53901;51.466;-2.588;2023-07-09T04:24:11;14.32;;;2.83;;
66970;SDS011;53901;51.466;-2.588;2023-07-09T04:26:36;11.50;;;2.35;;
66970;SDS011;53901;51.466;-2.588;2023-07-09T04:29:03;17.67;;;4.85;;
66970;SDS011;53901;51.466;-2.588;2023-07-09T04:31:30;11.50;;;3.08;;
66970;SDS011;53901;51.466;-2.588;2023-07-09T04:33:55;17.33;;;2.92;;
66970;SDS011;53901;51.466;-2.588;2023-07-09T04:36:21;9.48;;;2.35;;
66970;SDS011;53901;51.466;-2.588;2023-07-09T04:38:46;16.23;;;3.03;;
66970;SDS011;53901;51.466;-2.588;2023-07-09T04:41:12;15.07;;;2.53;;
66970;SDS011;53901;51.466;-2.588;2023-07-09T04:43:37;15.98;;;3.35;;
66970;SDS011;53901;51.466;-2.588;2023-07-09T04:46:02;12.80;;;2.53;;
66970;SDS011;53901;51.466;-2.588;2023-07-09T04:48:28;13.88;;;2.90;;
66970;SDS011;53901;51.466;-2.588;2023-07-09T04:50:53;10.90;;;2.42;;
66970;SDS011;53901;51.466;-2.588;2023-07-09T04:53:18;16.88;;;2.80;;
66970;SDS011;53901;51.466;-2.588;2023-07-09T04:55:44;11.52;;;2.85;;
66970;SDS011;53901;51.466;-2.588;2023-07-09T04:58:09;14.38;;;2.80;;
66970;SDS011;53901;51.466;-2.588;2023-07-09T05:00:34;10.82;;;2.75;;
66970;SDS011;53901;51.466;-2.588;2023-07-09T05:03:00;9.45;;;2.38;;
66970;SDS011;53901;51.466;-2.588;2023-07-09T05:05:25;16.98;;;2.70;;
66970;SDS011;53901;51.466;-2.588;2023-07-09T05:07:51;11.13;;;2.63;;
66970;SDS011;53901;51.466;-2.588;2023-07-09T05:10:16;10.80;;;2.63;;
66970;SDS011;53901;51.466;-2.588;2023-07-09T05:12:51;14.32;;;2.80;;
66970;SDS011;53901;51.466;-2.588;2023-07-09T05:15:19;12.27;;;2.35;;
66970;SDS011;53901;51.466;-2.588;2023-07-09T05:17:45;14.10;;;2.42;;
66970;SDS011;53901;51.466;-2.588;2023-07-09T05:20:11;18.63;;;2.35;;
66970;SDS011;53901;51.466;-2.588;2023-07-09T05:22:37;14.93;;;2.60;;
66970;SDS011;53901;51.466;-2.588;2023-07-09T05:25:02;13.27;;;2.70;;
66970;SDS011;53901;51.466;-2.588;2023-07-09T05:27:28;10.60;;;2.50;;
66970;SDS011;53901;51.466;-2.588;2023-07-09T05:29:53;10.98;;;2.47;;
66970;SDS011;53901;51.466;-2.588;2023-07-09T05:32:18;10.50;;;2.47;;
66970;SDS011;53901;51.466;-2.588;2023-07-09T05:34:44;12.10;;;2.53;;
66970;SDS011;53901;51.466;-2.588;2023-07-09T05:37:09;13.68;;;2.40;;
66970;SDS011;53901;51.466;-2.588;2023-07-09T05:39:34;12.07;;;2.95;;
66970;SDS011;53901;51.466;-2.588;2023-07-09T05:42:00;13.93;;;2.22;;
66970;SDS011;53901;51.466;-2.588;2023-07-09T05:44:25;13.98;;;2.25;;
66970;SDS011;53901;51.466;-2.588;2023-07-09T05:46:51;17.95;;;2.42;;
66970;SDS011;53901;51.466;-2.588;2023-07-09T05:49:18;10.35;;;2.35;;
66970;SDS011;53901;51.466;-2.588;2023-07-09T05:51:43;17.00;;;2.53;;
66970;SDS011;53901;51.466;-2.588;2023-07-09T05:54:09;8.45;;;2.40;;
66970;SDS011;53901;51.466;-2.588;2023-07-09T05:56:34;7.03;;;2.17;;
66970;SDS011;53901;51.466;-2.588;2023-07-09T05:59:00;8.52;;;2.20;;
66970;SDS011;53901;51.466;-2.588;2023-07-09T06:01:25;16.67;;;2.60;;
66970;SDS011;53901;51.466;-2.588;2023-07-09T06:03:51;12.80;;;2.80;;
66970;SDS011;53901;51.466;-2.588;2023-07-09T06:06:16;14.98;;;2.80;;
66970;SDS011;53901;51.466;-2.588;2023-07-09T06:08:42;17.02;;;3.10;;
66970;SDS011;53901;51.466;-2.588;2023-07-09T06:11:07;7.22;;;2.00;;
66970;SDS011;53901;51.466;-2.588;2023-07-09T06:13:33;13.27;;;3.10;;
66970;SDS011;53901;51.466;-2.588;2023-07-09T06:15:59;15.55;;;2.50;;
66970;SDS011;53901;51.466;-2.588;2023-07-09T06:18:25;15.70;;;2.50;;
66970;SDS011;53901;51.466;-2.588;2023-07-09T06:20:55;12.07;;;2.38;;
66970;SDS011;53901;51.466;-2.588;2023-07-09T06:23:24;14.90;;;2.15;;
66970;SDS011;53901;51.466;-2.588;2023-07-09T06:25:50;18.10;;;5.75;;
66970;SDS011;53901;51.466;-2.588;2023-07-09T06:28:20;13.35;;;2.80;;
66970;SDS011;53901;51.466;-2.588;2023-07-09T06:30:47;12.07;;;2.53;;
66970;SDS011;53901;51.466;-2.588;2023-07-09T06:33:13;13.38;;;2.35;;
66970;SDS011;53901;51.466;-2.588;2023-07-09T06:35:39;11.98;;;2.15;;
66970;SDS011;53901;51.466;-2.588;2023-07-09T06:38:10;10.27;;;2.53;;
66970;SDS011;53901;51.466;-2.588;2023-07-09T06:40:35;16.05;;;2.65;;
66970;SDS011;53901;51.466;-2.588;2023-07-09T06:43:01;15.15;;;2.63;;
66970;SDS011;53901;51.466;-2.588;2023-07-09T06:45:26;12.13;;;2.28;;
66970;SDS011;53901;51.466;-2.588;2023-07-09T06:47:52;15.95;;;2.33;;
66970;SDS011;53901;51.466;-2.588;2023-07-09T06:50:17;12.45;;;2.38;;
66970;SDS011;53901;51.466;-2.588;2023-07-09T06:52:42;11.20;;;2.35;;
66970;SDS011;53901;51.466;-2.588;2023-07-09T06:55:08;14.57;;;2.10;;
66970;SDS011;53901;51.466;-2.588;2023-07-09T06:57:34;14.43;;;2.40;;
66970;SDS011;53901;51.466;-2.588;2023-07-09T06:59:59;10.98;;;2.15;;
66970;SDS011;53901;51.466;-2.588;2023-07-09T07:02:25;9.48;;;2.10;;
66970;SDS011;53901;51.466;-2.588;2023-07-09T07:04:50;10.60;;;2.30;;
66970;SDS011;53901;51.466;-2.588;2023-07-09T07:07:15;13.70;;;2.40;;
66970;SDS011;53901;51.466;-2.588;2023-07-09T07:09:41;14.65;;;2.53;;
66970;SDS011;53901;51.466;-2.588;2023-07-09T07:12:06;17.15;;;2.97;;
66970;SDS011;53901;51.466;-2.588;2023-07-09T07:14:32;9.60;;;2.03;;
66970;SDS011;53901;51.466;-2.588;2023-07-09T07:16:58;14.27;;;2.35;;
66970;SDS011;53901;51.466;-2.588;2023-07-09T07:19:23;13.75;;;2.28;;
66970;SDS011;53901;51.466;-2.588;2023-07-09T07:21:48;10.35;;;2.40;;
66970;SDS011;53901;51.466;-2.588;2023-07-09T07:24:14;12.85;;;2.05;;
66970;SDS011;53901;51.466;-2.588;2023-07-09T07:26:39;11.73;;;2.55;;
66970;SDS011;53901;51.466;-2.588;2023-07-09T07:29:04;15.68;;;2.75;;
66970;SDS011;53901;51.466;-2.588;2023-07-09T07:31:30;16.65;;;2.42;;
66970;SDS011;53901;51.466;-2.588;2023-07-09T07:33:55;14.18;;;2.35;;
66970;SDS011;53901;51.466;-2.588;2023-07-09T07:36:21;11.75;;;2.15;;
66970;SDS011;53901;51.466;-2.588;2023-07-09T07:38:46;15.77;;;2.88;;
66970;SDS011;53901;51.466;-2.588;2023-07-09T07:41:12;10.57;;;1.98;;
66970;SDS011;53901;51.466;-2.588;2023-07-09T07:43:37;8.55;;;1.85;;
66970;SDS011;53901;51.466;-2.588;2023-07-09T07:46:02;13.48;;;2.15;;
66970;SDS011;53901;51.466;-2.588;2023-07-09T07:48:28;13.05;;;2.70;;
66970;SDS011;53901;51.466;-2.588;2023-07-09T07:51:00;14.02;;;2.38;;
66970;SDS011;53901;51.466;-2.588;2023-07-09T07:53:27;12.35;;;2.45;;
66970;SDS011;53901;51.466;-2.588;2023-07-09T07:55:54;13.02;;;2.30;;
66970;SDS011;53901;51.466;-2.588;2023-07-09T07:58:21;15.93;;;2.20;;
66970;SDS011;53901;51.466;-2.588;2023-07-09T08:00:46;16.10;;;2.22;;
66970;SDS011;53901;51.466;-2.588;2023-07-09T08:03:12;12.50;;;2.03;;
66970;SDS011;53901;51.466;-2.588;2023-07-09T08:05:37;12.80;;;2.28;;
66970;SDS011;53901;51.466;-2.588;2023-07-09T08:08:03;10.85;;;1.88;;
66970;SDS011;53901;51.466;-2.588;2023-07-09T08:10:29;10.07;;;1.92;;
66970;SDS011;53901;51.466;-2.588;2023-07-09T08:12:54;12.20;;;2.10;;
66970;SDS011;53901;51.466;-2.588;2023-07-09T08:15:21;12.38;;;1.90;;
66970;SDS011;53901;51.466;-2.588;2023-07-09T08:17:48;11.77;;;2.03;;
66970;SDS011;53901;51.466;-2.588;2023-07-09T08:20:13;12.98;;;2.20;;
66970;SDS011;53901;51.466;-2.588;2023-07-09T08:22:39;9.40;;;2.10;;
66970;SDS011;53901;51.466;-2.588;2023-07-09T08:25:04;7.20;;;1.98;;
66970;SDS011;53901;51.466;-2.588;2023-07-09T08:27:31;9.27;;;2.10;;
66970;SDS011;53901;51.466;-2.588;2023-07-09T08:29:56;10.82;;;2.10;;
66970;SDS011;53901;51.466;-2.588;2023-07-09T08:32:22;7.28;;;1.70;;
66970;SDS011;53901;51.466;-2.588;2023-07-09T08:34:47;7.53;;;1.70;;
66970;SDS011;53901;51.466;-2.588;2023-07-09T08:37:12;10.95;;;2.25;;
66970;SDS011;53901;51.466;-2.588;2023-07-09T08:39:38;9.75;;;1.75;;
66970;SDS011;53901;51.466;-2.588;2023-07-09T08:42:14;8.43;;;1.75;;
66970;SDS011;53901;51.466;-2.588;2023-07-09T08:47:37;8.20;;;1.60;;
66970;SDS011;53901;51.466;-2.588;2023-07-09T08:50:17;7.90;;;1.80;;
66970;SDS011;53901;51.466;-2.588;2023-07-09T08:52:47;8.02;;;1.75;;
66970;SDS011;53901;51.466;-2.588;2023-07-09T08:57:52;5.45;;;1.40;;
66970;SDS011;53901;51.466;-2.588;2023-07-09T09:00:33;10.35;;;1.83;;
66970;SDS011;53901;51.466;-2.588;2023-07-09T09:03:14;6.05;;;1.30;;
66970;SDS011;53901;51.466;-2.588;2023-07-09T09:05:42;6.30;;;1.60;;
66970;SDS011;53901;51.466;-2.588;2023-07-09T09:08:12;5.10;;;1.60;;
66970;SDS011;53901;51.466;-2.588;2023-07-09T09:10:55;6.63;;;1.73;;
66970;SDS011;53901;51.466;-2.588;2023-07-09T09:13:25;7.70;;;1.60;;
66970;SDS011;53901;51.466;-2.588;2023-07-09T09:15:53;7.28;;;1.48;;
66970;SDS011;53901;51.466;-2.588;2023-07-09T09:18:23;6.63;;;1.60;;
66970;SDS011;53901;51.466;-2.588;2023-07-09T09:21:38;8.20;;;1.50;;
66970;SDS011;53901;51.466;-2.588;2023-07-09T09:23:56;7.20;;;1.85;;
66970;SDS011;53901;51.466;-2.588;2023-07-09T09:26:31;7.35;;;1.90;;
66970;SDS011;53901;51.466;-2.588;2023-07-09T09:28:58;7.03;;;1.55;;
66970;SDS011;53901;51.466;-2.588;2023-07-09T09:31:24;8.00;;;1.77;;
66970;SDS011;53901;51.466;-2.588;2023-07-09T09:33:52;7.68;;;1.65;;
66970;SDS011;53901;51.466;-2.588;2023-07-09T09:38:50;5.30;;;1.25;;
66970;SDS011;53901;51.466;-2.588;2023-07-09T09:41:20;6.03;;;1.50;;
66970;SDS011;53901;51.466;-2.588;2023-07-09T09:43:47;11.95;;;2.00;;
66970;SDS011;53901;51.466;-2.588;2023-07-09T09:46:24;9.27;;;2.10;;
66970;SDS011;53901;51.466;-2.588;2023-07-09T09:48:58;8.85;;;1.60;;
66970;SDS011;53901;51.466;-2.588;2023-07-09T09:51:25;6.85;;;1.77;;
66970;SDS011;53901;51.466;-2.588;2023-07-09T09:54:01;7.93;;;1.73;;
66970;SDS011;53901;51.466;-2.588;2023-07-09T09:56:33;7.03;;;1.50;;
66970;SDS011;53901;51.466;-2.588;2023-07-09T09:59:01;7.55;;;1.63;;
66970;SDS011;53901;51.466;-2.588;2023-07-09T10:01:31;9.20;;;1.70;;
66970;SDS011;53901;51.466;-2.588;2023-07-09T10:04:00;10.30;;;1.75;;
66970;SDS011;53901;51.466;-2.588;2023-07-09T10:06:33;11.68;;;1.70;;
66970;SDS011;53901;51.466;-2.588;2023-07-09T10:20:18;4.70;;;1.50;;
66970;SDS011;53901;51.466;-2.588;2023-07-09T10:25:25;7.18;;;1.35;;
66970;SDS011;53901;51.466;-2.588;2023-07-09T10:30:42;9.85;;;1.73;;
66970;SDS011;53901;51.466;-2.588;2023-07-09T10:33:13;13.50;;;3.40;;
66970;SDS011;53901;51.466;-2.588;2023-07-09T10:35:47;8.23;;;1.98;;
66970;SDS011;53901;51.466;-2.588;2023-07-09T10:38:55;10.90;;;2.30;;
66970;SDS011;53901;51.466;-2.588;2023-07-09T10:44:01;7.10;;;1.57;;
66970;SDS011;53901;51.466;-2.588;2023-07-09T10:46:35;11.00;;;2.33;;
66970;SDS011;53901;51.466;-2.588;2023-07-09T10:49:03;7.43;;;1.98;;
66970;SDS011;53901;51.466;-2.588;2023-07-09T10:56:37;11.65;;;2.35;;
66970;SDS011;53901;51.466;-2.588;2023-07-09T11:01:56;6.20;;;2.30;;
66970;SDS011;53901;51.466;-2.588;2023-07-09T11:04:31;10.10;;;2.60;;
66970;SDS011;53901;51.466;-2.588;2023-07-09T11:07:01;8.32;;;2.55;;
66970;SDS011;53901;51.466;-2.588;2023-07-09T11:09:33;9.63;;;2.05;;
66970;SDS011;53901;51.466;-2.588;2023-07-09T11:12:02;8.82;;;2.00;;
66970;SDS011;53901;51.466;-2.588;2023-07-09T11:16:57;9.50;;;2.47;;
66970;SDS011;53901;51.466;-2.588;2023-07-09T11:19:24;9.00;;;1.77;;
66970;SDS011;53901;51.466;-2.588;2023-07-09T11:22:05;12.38;;;2.33;;
66970;SDS011;53901;51.466;-2.588;2023-07-09T11:27:24;9.02;;;2.00;;
66970;SDS011;53901;51.466;-2.588;2023-07-09T11:30:01;6.13;;;1.52;;
66970;SDS011;53901;51.466;-2.588;2023-07-09T11:32:28;12.40;;;2.30;;
66970;SDS011;53901;51.466;-2.588;2023-07-09T11:34:54;5.20;;;1.75;;
66970;SDS011;53901;51.466;-2.588;2023-07-09T11:37:31;10.98;;;2.25;;
66970;SDS011;53901;51.466;-2.588;2023-07-09T11:40:01;8.82;;;1.45;;
66970;SDS011;53901;51.466;-2.588;2023-07-09T11:42:33;6.35;;;1.80;;
66970;SDS011;53901;51.466;-2.588;2023-07-09T11:45:21;6.88;;;1.60;;
66970;SDS011;53901;51.466;-2.588;2023-07-09T11:47:59;6.70;;;1.50;;
66970;SDS011;53901;51.466;-2.588;2023-07-09T11:50:31;6.38;;;1.75;;
66970;SDS011;53901;51.466;-2.588;2023-07-09T11:53:43;5.95;;;1.35;;
66970;SDS011;53901;51.466;-2.588;2023-07-09T11:55:48;8.82;;;1.80;;
66970;SDS011;53901;51.466;-2.588;2023-07-09T11:58:15;5.97;;;1.73;;
66970;SDS011;53901;51.466;-2.588;2023-07-09T12:00:42;7.68;;;1.50;;
66970;SDS011;53901;51.466;-2.588;2023-07-09T12:03:18;8.65;;;1.45;;
66970;SDS011;53901;51.466;-2.588;2023-07-09T12:05:47;7.25;;;1.55;;
66970;SDS011;53901;51.466;-2.588;2023-07-09T12:08:15;7.68;;;1.38;;
66970;SDS011;53901;51.466;-2.588;2023-07-09T12:10:40;4.63;;;1.33;;
66970;SDS011;53901;51.466;-2.588;2023-07-09T12:13:08;6.72;;;1.48;;
66970;SDS011;53901;51.466;-2.588;2023-07-09T12:15:38;6.15;;;0.93;;
66970;SDS011;53901;51.466;-2.588;2023-07-09T12:18:09;3.00;;;1.05;;
66970;SDS011;53901;51.466;-2.588;2023-07-09T12:20:36;6.18;;;1.20;;
66970;SDS011;53901;51.466;-2.588;2023-07-09T12:23:16;4.85;;;1.60;;
66970;SDS011;53901;51.466;-2.588;2023-07-09T12:25:50;7.72;;;1.60;;
66970;SDS011;53901;51.466;-2.588;2023-07-09T12:28:16;8.52;;;2.47;;
66970;SDS011;53901;51.466;-2.588;2023-07-09T12:30:46;7.43;;;1.95;;
66970;SDS011;53901;51.466;-2.588;2023-07-09T12:33:16;12.77;;;7.03;;
66970;SDS011;53901;51.466;-2.588;2023-07-09T12:35:42;7.97;;;2.10;;
66970;SDS011;53901;51.466;-2.588;2023-07-09T12:38:16;4.57;;;1.50;;
66970;SDS011;53901;51.466;-2.588;2023-07-09T12:40:44;8.13;;;2.05;;
66970;SDS011;53901;51.466;-2.588;2023-07-09T12:43:10;8.77;;;2.10;;
66970;SDS011;53901;51.466;-2.588;2023-07-09T12:45:36;5.75;;;1.60;;
66970;SDS011;53901;51.466;-2.588;2023-07-09T12:48:01;9.93;;;1.75;;
66970;SDS011;53901;51.466;-2.588;2023-07-09T12:50:31;10.50;;;2.33;;
66970;SDS011;53901;51.466;-2.588;2023-07-09T12:53:01;4.95;;;1.65;;
66970;SDS011;53901;51.466;-2.588;2023-07-09T12:55:28;6.05;;;1.70;;
66970;SDS011;53901;51.466;-2.588;2023-07-09T12:57:57;7.45;;;2.03;;
66970;SDS011;53901;51.466;-2.588;2023-07-09T13:00:26;11.25;;;2.00;;
66970;SDS011;53901;51.466;-2.588;2023-07-09T13:02:57;7.43;;;1.83;;
66970;SDS011;53901;51.466;-2.588;2023-07-09T13:05:23;5.70;;;1.70;;
66970;SDS011;53901;51.466;-2.588;2023-07-09T13:07:50;7.13;;;1.38;;
66970;SDS011;53901;51.466;-2.588;2023-07-09T13:10:19;7.13;;;1.60;;
66970;SDS011;53901;51.466;-2.588;2023-07-09T13:12:51;6.88;;;1.80;;
66970;SDS011;53901;51.466;-2.588;2023-07-09T13:15:20;7.30;;;1.60;;
66970;SDS011;53901;51.466;-2.588;2023-07-09T13:17:48;7.90;;;1.63;;
66970;SDS011;53901;51.466;-2.588;2023-07-09T13:20:14;5.53;;;1.65;;
66970;SDS011;53901;51.466;-2.588;2023-07-09T13:22:39;6.38;;;1.70;;
66970;SDS011;53901;51.466;-2.588;2023-07-09T13:25:07;7.22;;;2.03;;
66970;SDS011;53901;51.466;-2.588;2023-07-09T13:27:33;5.75;;;1.60;;
66970;SDS011;53901;51.466;-2.588;2023-07-09T13:29:59;9.60;;;2.10;;
66970;SDS011;53901;51.466;-2.588;2023-07-09T13:32:24;11.35;;;1.90;;
66970;SDS011;53901;51.466;-2.588;2023-07-09T13:34:50;7.43;;;1.98;;
66970;SDS011;53901;51.466;-2.588;2023-07-09T13:37:16;7.10;;;1.58;;
66970;SDS011;53901;51.466;-2.588;2023-07-09T13:39:42;5.68;;;1.50;;
66970;SDS011;53901;51.466;-2.588;2023-07-09T13:42:12;4.53;;;1.30;;
66970;SDS011;53901;51.466;-2.588;2023-07-09T13:44:39;7.03;;;1.80;;
66970;SDS011;53901;51.466;-2.588;2023-07-09T13:47:05;9.77;;;1.50;;
66970;SDS011;53901;51.466;-2.588;2023-07-09T13:49:30;9.43;;;2.10;;
66970;SDS011;53901;51.466;-2.588;2023-07-09T13:51:57;7.25;;;1.90;;
66970;SDS011;53901;51.466;-2.588;2023-07-09T13:54:28;8.43;;;1.80;;
66970;SDS011;53901;51.466;-2.588;2023-07-09T13:57:06;8.02;;;1.60;;
66970;SDS011;53901;51.466;-2.588;2023-07-09T13:59:38;6.38;;;1.15;;
66970;SDS011;53901;51.466;-2.588;2023-07-09T14:02:05;9.43;;;2.00;;
66970;SDS011;53901;51.466;-2.588;2023-07-09T14:04:44;6.80;;;1.80;;
66970;SDS011;53901;51.466;-2.588;2023-07-09T14:07:20;6.65;;;1.58;;
66970;SDS011;53901;51.466;-2.588;2023-07-09T14:09:49;5.95;;;1.65;;
66970;SDS011;53901;51.466;-2.588;2023-07-09T14:12:15;6.70;;;1.60;;
66970;SDS011;53901;51.466;-2.588;2023-07-09T14:14:40;5.35;;;1.42;;
66970;SDS011;53901;51.466;-2.588;2023-07-09T14:17:09;7.80;;;1.60;;
66970;SDS011;53901;51.466;-2.588;2023-07-09T14:19:36;13.32;;;2.00;;
66970;SDS011;53901;51.466;-2.588;2023-07-09T14:22:02;5.95;;;1.45;;
66970;SDS011;53901;51.466;-2.588;2023-07-09T14:24:28;8.77;;;1.83;;
66970;SDS011;53901;51.466;-2.588;2023-07-09T14:26:57;6.32;;;1.38;;
66970;SDS011;53901;51.466;-2.588;2023-07-09T14:29:23;8.68;;;2.03;;
66970;SDS011;53901;51.466;-2.588;2023-07-09T14:31:49;7.75;;;1.90;;
66970;SDS011;53901;51.466;-2.588;2023-07-09T14:36:48;6.22;;;1.23;;
66970;SDS011;53901;51.466;-2.588;2023-07-09T14:39:14;6.65;;;1.50;;
66970;SDS011;53901;51.466;-2.588;2023-07-09T14:41:40;5.72;;;1.42;;
66970;SDS011;53901;51.466;-2.588;2023-07-09T14:47:00;5.05;;;1.20;;
66970;SDS011;53901;51.466;-2.588;2023-07-09T14:49:27;8.57;;;1.88;;
66970;SDS011;53901;51.466;-2.588;2023-07-09T14:51:53;7.03;;;1.40;;
66970;SDS011;53901;51.466;-2.588;2023-07-09T14:56:52;7.68;;;1.75;;
66970;SDS011;53901;51.466;-2.588;2023-07-09T14:59:18;7.00;;;1.70;;
66970;SDS011;53901;51.466;-2.588;2023-07-09T15:01:44;12.27;;;2.13;;
66970;SDS011;53901;51.466;-2.588;2023-07-09T15:04:31;7.30;;;1.50;;
66970;SDS011;53901;51.466;-2.588;2023-07-09T15:06:56;3.85;;;1.30;;
66970;SDS011;53901;51.466;-2.588;2023-07-09T15:09:23;8.00;;;1.92;;
66970;SDS011;53901;51.466;-2.588;2023-07-09T15:11:54;9.35;;;1.73;;
66970;SDS011;53901;51.466;-2.588;2023-07-09T15:14:24;8.88;;;1.95;;
66970;SDS011;53901;51.466;-2.588;2023-07-09T15:16:50;5.00;;;1.77;;
66970;SDS011;53901;51.466;-2.588;2023-07-09T15:19:16;8.00;;;1.33;;
66970;SDS011;53901;51.466;-2.588;2023-07-09T15:21:44;7.80;;;2.38;;